createdAt,value
2022-07-29T00:02:09.600Z,17.90
2022-07-29T00:06:17.559Z,17.90
2022-07-29T00:10:00.388Z,17.80
2022-07-29T00:13:45.371Z,17.70
2022-07-29T00:17:39.509Z,17.60
2022-07-29T00:21:22.893Z,17.50
2022-07-29T00:25:16.989Z,17.50
2022-07-29T00:33:12.240Z,17.30
2022-07-29T00:36:54.752Z,17.20
2022-07-29T00:41:04.405Z,17.10
2022-07-29T00:44:55.230Z,17.00
2022-07-29T00:48:40.101Z,17.00
2022-07-29T00:56:19.947Z,16.90
2022-07-29T01:00:32.570Z,16.80
2022-07-29T01:04:15.198Z,16.70
2022-07-29T01:08:00.144Z,16.60
2022-07-29T01:11:47.764Z,16.60
2022-07-29T01:15:49.418Z,16.50
2022-07-29T01:19:55.348Z,16.40
2022-07-29T01:23:59.096Z,16.30
2022-07-29T01:28:09.175Z,16.20
2022-07-29T01:32:28.151Z,16.20
2022-07-29T01:36:38.254Z,16.20
2022-07-29T01:40:35.062Z,16.20
2022-07-29T01:44:25.525Z,16.10
2022-07-29T01:48:32.404Z,16.20
2022-07-29T01:52:47.680Z,16.30
2022-07-29T01:56:35.461Z,16.30
2022-07-29T02:00:19.836Z,16.20
2022-07-29T02:04:10.129Z,16.20
2022-07-29T02:07:53.988Z,16.20
2022-07-29T02:11:41.867Z,16.20
2022-07-29T02:15:33.463Z,16.10
2022-07-29T02:19:20.049Z,16.10
2022-07-29T02:23:05.727Z,16.10
2022-07-29T02:26:56.701Z,16.10
2022-07-29T02:30:43.615Z,16.20
2022-07-29T02:34:31.896Z,16.10
2022-07-29T02:38:35.871Z,16.20
2022-07-29T02:42:19.765Z,16.10
2022-07-29T02:46:06.724Z,16.20
2022-07-29T02:50:42.134Z,16.20
2022-07-29T02:55:25.629Z,16.20
2022-07-29T02:59:16.751Z,16.20
2022-07-29T03:03:03.414Z,16.30
2022-07-29T03:06:49.944Z,16.20
2022-07-29T03:10:35.833Z,16.20
2022-07-29T03:14:25.152Z,16.20
2022-07-29T03:18:24.702Z,16.10
2022-07-29T03:22:09.593Z,16.10
2022-07-29T03:25:54.475Z,16.10
2022-07-29T03:29:37.891Z,16.10
2022-07-29T03:33:21.149Z,16.10
2022-07-29T03:37:04.369Z,16.00
2022-07-29T03:40:53.123Z,16.00
2022-07-29T03:44:44.367Z,16.00
2022-07-29T03:48:32.177Z,16.00
2022-07-29T03:52:22.081Z,16.00
2022-07-29T03:56:10.094Z,15.90
2022-07-29T04:00:06.574Z,15.80
2022-07-29T04:03:48.728Z,15.70
2022-07-29T04:07:33.258Z,15.70
2022-07-29T04:11:16.797Z,15.60
2022-07-29T04:15:00.910Z,15.60
2022-07-29T04:18:52.190Z,15.60
2022-07-29T04:22:37.206Z,15.50
2022-07-29T04:26:23.467Z,15.50
2022-07-29T04:30:11.263Z,15.50
2022-07-29T04:33:54.769Z,15.50
2022-07-29T04:37:37.480Z,15.50
2022-07-29T04:41:32.681Z,15.50
2022-07-29T04:45:30.352Z,15.50
2022-07-29T04:57:36.699Z,15.40
2022-07-29T05:05:50.244Z,15.40
2022-07-29T05:09:33.364Z,15.40
2022-07-29T05:17:16.301Z,15.30
2022-07-29T05:21:21.789Z,15.40
2022-07-29T05:25:09.096Z,15.30
2022-07-29T05:28:56.311Z,15.40
2022-07-29T05:33:09.455Z,15.40
2022-07-29T05:42:35.671Z,15.60
2022-07-29T05:50:54.720Z,15.80
2022-07-29T05:54:37.810Z,15.90
2022-07-29T05:58:20.180Z,16.00
2022-07-29T06:02:07.170Z,16.00
2022-07-29T06:06:04.625Z,16.10
2022-07-29T06:09:51.974Z,16.50
2022-07-29T06:13:36.958Z,16.90
2022-07-29T06:17:28.551Z,17.20
2022-07-29T06:31:03.301Z,18.10
2022-07-29T06:34:46.314Z,18.60
2022-07-29T06:38:34.257Z,19.10
2022-07-29T06:42:21.421Z,19.60
2022-07-29T06:46:07.690Z,20.10
2022-07-29T07:02:40.763Z,22.10
2022-07-29T07:10:25.092Z,23.00
2022-07-29T07:14:12.266Z,23.30
2022-07-29T07:17:58.545Z,23.60
2022-07-29T07:21:40.537Z,23.90
2022-07-29T07:25:22.736Z,24.00
2022-07-29T07:29:04.840Z,24.40
2022-07-29T07:32:46.917Z,24.80
2022-07-29T07:36:28.976Z,25.10
2022-07-29T07:40:18.820Z,25.40
2022-07-29T07:44:01.320Z,25.70
2022-07-29T07:47:43.490Z,26.10
2022-07-29T07:51:25.455Z,26.30
2022-07-29T07:55:07.850Z,26.50
2022-07-29T07:58:49.787Z,26.80
2022-07-29T08:02:32.774Z,27.10
2022-07-29T08:06:22.060Z,27.40
2022-07-29T08:10:08.950Z,27.70
2022-07-29T08:13:51.295Z,28.00
2022-07-29T08:17:35.486Z,28.20
2022-07-29T08:21:18.291Z,28.60
2022-07-29T08:25:00.614Z,28.80
2022-07-29T08:29:01.192Z,29.00
2022-07-29T08:32:53.733Z,29.30
2022-07-29T08:36:37.854Z,29.80
2022-07-29T08:40:31.833Z,30.10
2022-07-29T08:44:16.974Z,30.50
2022-07-29T08:48:14.107Z,30.80
2022-07-29T08:52:10.149Z,31.10
2022-07-29T08:55:56.700Z,31.50
2022-07-29T08:59:43.355Z,31.80
2022-07-29T09:03:28.422Z,32.20
2022-07-29T09:07:11.286Z,32.60
2022-07-29T09:10:57.417Z,32.90
2022-07-29T09:14:50.393Z,33.10
2022-07-29T09:18:42.604Z,33.40
2022-07-29T09:22:36.720Z,33.60
2022-07-29T09:26:31.086Z,33.90
2022-07-29T09:30:28.347Z,34.10
2022-07-29T09:34:16.263Z,34.20
2022-07-29T09:37:58.536Z,34.40
2022-07-29T09:41:55.609Z,34.40
2022-07-29T09:45:38.927Z,34.60
2022-07-29T09:49:24.243Z,35.00
2022-07-29T09:53:06.483Z,35.40
2022-07-29T09:56:55.496Z,35.90
2022-07-29T10:00:43.726Z,36.10
2022-07-29T10:04:42.634Z,35.70
2022-07-29T10:08:28.097Z,35.50
2022-07-29T10:12:15.629Z,35.40
2022-07-29T10:16:00.534Z,35.50
2022-07-29T10:19:46.139Z,35.90
2022-07-29T10:23:30.483Z,36.50
2022-07-29T10:27:29.287Z,36.60
2022-07-29T10:31:35.840Z,36.80
2022-07-29T10:35:53.358Z,37.50
2022-07-29T10:40:30.965Z,38.10
2022-07-29T10:44:24.800Z,38.60
2022-07-29T10:48:08.102Z,39.00
2022-07-29T10:52:00.018Z,39.10
2022-07-29T10:55:47.843Z,39.40
2022-07-29T10:59:36.392Z,39.80
2022-07-29T11:03:52.381Z,40.30
2022-07-29T11:07:42.650Z,40.90
2022-07-29T11:11:29.743Z,41.50
2022-07-29T11:15:18.422Z,42.00
2022-07-29T11:19:13.056Z,42.30
2022-07-29T11:22:55.521Z,42.10
2022-07-29T11:26:38.304Z,42.20
2022-07-29T11:30:21.865Z,42.30
2022-07-29T11:34:30.388Z,41.80
2022-07-29T11:38:29.161Z,42.10
2022-07-29T11:42:28.785Z,42.70
2022-07-29T11:46:15.721Z,43.10
2022-07-29T11:50:10.421Z,43.70
2022-07-29T11:53:52.821Z,44.30
2022-07-29T11:57:36.709Z,44.50
2022-07-29T12:01:19.552Z,44.30
2022-07-29T12:05:01.445Z,44.60
2022-07-29T12:08:52.892Z,44.90
2022-07-29T12:12:36.114Z,45.60
2022-07-29T12:16:25.654Z,46.20
2022-07-29T12:20:10.363Z,46.70
2022-07-29T12:24:04.787Z,47.10
2022-07-29T12:28:02.126Z,47.30
2022-07-29T12:31:46.164Z,47.40
2022-07-29T12:35:28.574Z,47.60
2022-07-29T12:39:13.911Z,47.60
2022-07-29T12:43:17.000Z,47.50
2022-07-29T12:47:05.559Z,46.50
2022-07-29T12:50:58.514Z,45.70
2022-07-29T12:54:48.406Z,45.60
2022-07-29T12:58:44.461Z,45.70
2022-07-29T13:02:27.689Z,45.80
2022-07-29T13:06:37.828Z,45.60
2022-07-29T13:10:24.589Z,45.30
2022-07-29T13:14:11.427Z,45.30
2022-07-29T13:17:53.624Z,45.20
2022-07-29T13:21:36.309Z,44.90
2022-07-29T13:25:27.029Z,44.80
2022-07-29T13:29:09.353Z,44.90
2022-07-29T13:32:52.504Z,44.80
2022-07-29T13:36:38.767Z,44.50
2022-07-29T13:40:36.710Z,43.70
2022-07-29T13:44:21.965Z,42.90
2022-07-29T13:48:07.745Z,42.90
2022-07-29T13:51:51.330Z,42.50
2022-07-29T13:55:33.619Z,40.60
2022-07-29T13:59:16.224Z,38.90
2022-07-29T14:02:58.784Z,37.50
2022-07-29T14:06:49.437Z,36.20
2022-07-29T14:10:33.430Z,35.30
2022-07-29T14:14:22.081Z,34.40
2022-07-29T14:18:25.138Z,33.70
2022-07-29T14:22:13.069Z,33.20
2022-07-29T14:25:55.641Z,32.90
2022-07-29T14:29:39.397Z,32.60
2022-07-29T14:33:24.165Z,32.40
2022-07-29T14:37:07.347Z,32.20
2022-07-29T14:40:50.902Z,32.10
2022-07-29T14:44:33.583Z,32.00
2022-07-29T14:48:15.976Z,31.90
2022-07-29T14:51:58.639Z,31.80
2022-07-29T14:55:42.015Z,31.80
2022-07-29T14:59:25.029Z,31.70
2022-07-29T15:03:11.202Z,31.60
2022-07-29T15:06:54.120Z,31.50
2022-07-29T15:10:37.036Z,31.60
2022-07-29T15:14:19.632Z,31.60
2022-07-29T15:18:02.083Z,31.80
2022-07-29T15:21:48.864Z,31.90
2022-07-29T15:25:31.335Z,32.00
2022-07-29T15:29:14.748Z,31.90
2022-07-29T15:32:59.210Z,31.80
2022-07-29T15:36:52.134Z,31.50
2022-07-29T15:40:35.003Z,31.30
2022-07-29T15:44:17.030Z,31.20
2022-07-29T15:47:59.251Z,31.00
2022-07-29T15:51:44.026Z,30.80
2022-07-29T15:55:26.035Z,30.70
2022-07-29T15:59:08.001Z,30.60
2022-07-29T16:02:50.451Z,30.40
2022-07-29T16:06:32.553Z,30.20
2022-07-29T16:10:14.637Z,30.10
2022-07-29T16:13:56.791Z,29.90
2022-07-29T16:17:40.154Z,29.80
2022-07-29T16:21:25.632Z,29.70
2022-07-29T16:25:10.081Z,29.60
2022-07-29T16:28:52.927Z,29.30
2022-07-29T16:32:37.308Z,29.30
2022-07-29T16:36:19.814Z,29.10
2022-07-29T16:56:39.165Z,29.10
2022-07-29T17:00:25.554Z,29.10
2022-07-29T17:04:07.657Z,29.10
2022-07-29T17:07:51.112Z,29.10
2022-07-29T17:11:51.784Z,29.10
2022-07-29T17:15:36.368Z,29.00
2022-07-29T17:19:19.104Z,29.10
2022-07-29T17:23:03.890Z,29.00
2022-07-29T17:26:47.050Z,28.90
2022-07-29T17:30:32.672Z,28.80
2022-07-29T17:34:19.935Z,28.70
2022-07-29T17:38:02.501Z,28.70
2022-07-29T17:41:47.368Z,28.60
2022-07-29T17:45:50.287Z,28.60
2022-07-29T17:49:53.413Z,28.40
2022-07-29T17:53:37.396Z,28.20
2022-07-29T17:57:19.689Z,28.00
2022-07-29T18:01:02.296Z,27.80
2022-07-29T18:04:49.655Z,27.60
2022-07-29T18:08:35.494Z,27.60
2022-07-29T18:12:17.636Z,27.40
2022-07-29T18:16:00.685Z,27.30
2022-07-29T18:19:44.956Z,27.10
2022-07-29T18:23:29.840Z,27.00
2022-07-29T18:27:12.345Z,26.80
2022-07-29T18:30:58.908Z,26.70
2022-07-29T18:34:42.146Z,26.60
2022-07-29T18:38:24.238Z,26.50
2022-07-29T18:42:06.597Z,26.40
2022-07-29T18:45:50.042Z,26.30
2022-07-29T18:49:34.510Z,26.30
2022-07-29T18:53:16.651Z,26.20
2022-07-29T18:57:01.229Z,26.20
2022-07-29T19:01:02.777Z,26.30
2022-07-29T19:04:44.852Z,26.20
2022-07-29T19:08:26.976Z,26.10
2022-07-29T19:12:09.226Z,26.10
2022-07-29T19:15:51.286Z,26.00
2022-07-29T19:19:33.745Z,25.90
2022-07-29T19:23:16.267Z,25.70
2022-07-29T19:27:01.240Z,25.60
2022-07-29T19:30:43.532Z,25.60
2022-07-29T19:34:25.754Z,25.50
2022-07-29T19:38:08.054Z,25.40
2022-07-29T19:42:03.259Z,25.30
2022-07-29T19:45:48.359Z,25.30
2022-07-29T19:49:33.546Z,25.20
2022-07-29T19:53:40.652Z,25.10
2022-07-29T19:57:24.156Z,25.10
2022-07-29T20:01:11.341Z,25.00
2022-07-29T20:04:54.689Z,24.90
2022-07-29T20:08:56.745Z,24.80
2022-07-29T20:12:55.553Z,24.70
2022-07-29T20:20:39.519Z,24.40
2022-07-29T20:24:22.378Z,24.20
2022-07-29T20:28:05.770Z,24.10
2022-07-29T20:31:52.944Z,24.00
2022-07-29T20:35:41.568Z,23.90
2022-07-29T20:39:24.215Z,23.80
2022-07-29T20:43:09.663Z,23.70
2022-07-29T20:46:51.921Z,23.60
2022-07-29T20:50:34.102Z,23.60
2022-07-29T20:54:16.636Z,23.40
2022-07-29T20:58:00.210Z,23.30
2022-07-29T21:01:42.475Z,23.20
2022-07-29T21:05:24.995Z,23.10
2022-07-29T21:09:07.139Z,23.00
2022-07-29T21:12:49.246Z,23.00
2022-07-29T21:16:34.170Z,22.80
2022-07-29T21:20:18.823Z,22.70
2022-07-29T21:24:03.395Z,22.60
2022-07-29T21:28:04.192Z,22.60
2022-07-29T21:31:54.800Z,22.50
2022-07-29T21:35:59.057Z,22.40
2022-07-29T21:39:39.650Z,22.30
2022-07-29T21:43:25.284Z,22.20
2022-07-29T21:47:10.159Z,22.10
2022-07-29T21:50:58.206Z,22.10
2022-07-29T21:54:42.076Z,22.10
2022-07-29T21:58:25.993Z,22.00
2022-07-29T22:02:11.328Z,22.00
2022-07-29T22:05:53.729Z,22.00
2022-07-29T22:09:36.117Z,21.80
2022-07-29T22:13:20.712Z,21.80
2022-07-29T22:17:04.499Z,21.80
2022-07-29T22:20:47.231Z,21.70
2022-07-29T22:24:29.561Z,21.60
2022-07-29T22:28:11.602Z,21.60
2022-07-29T22:31:53.882Z,21.60
2022-07-29T22:35:35.960Z,21.50
2022-07-29T22:39:18.255Z,21.50
2022-07-29T22:43:02.655Z,21.50
2022-07-29T22:46:45.089Z,21.30
2022-07-29T22:50:28.521Z,21.30
2022-07-29T22:54:11.186Z,21.20
2022-07-29T22:57:54.089Z,21.20
2022-07-29T23:01:37.869Z,21.10
2022-07-29T23:05:20.507Z,21.10
2022-07-29T23:09:04.705Z,21.00
2022-07-29T23:12:47.226Z,21.00
2022-07-29T23:16:29.587Z,21.00
2022-07-29T23:20:11.974Z,20.90
2022-07-29T23:23:57.331Z,20.90
2022-07-29T23:27:39.507Z,20.80
2022-07-29T23:31:26.184Z,20.70
2022-07-29T23:35:09.127Z,20.70
2022-07-29T23:38:51.225Z,20.60
2022-07-29T23:42:33.648Z,20.60
2022-07-29T23:46:16.101Z,20.50
2022-07-29T23:49:58.616Z,20.50
2022-07-29T23:53:54.092Z,20.50
2022-07-29T23:57:36.307Z,20.40
